METAR Data
IDs: Format: Raw Decoded Include TAF

Data at: 1443 UTC 27 Nov 2021

FACT 271400Z 32023G34KT 9999 FEW014 SCT035 20/14 Q1008 NOSIG